x

Gulf Of Maine - 78 Nm East Of Portsmouth, Nh (44005) Wave Buoy

1:50 - Thu 30th Oct 2014 All times are EDT. -4 hours from GMT.

  • Sig Wave height 2.6ft
  • Peak Period 7s
  • Wind
    7mph, 9mph gusts
  • Sea Temp 55°f
  • Air Temp 53°f
  • Sea Pressure 1011.5mb
  • Gulf Of Maine - 78 Nm East Of Portsmouth, Nh
  • Gulf Of Maine - 78 Nm East Of Portsmouth, Nh

More Historic Weather Station data

Upgrade to MSW Pro to gain access to the past 30 days of data for over 8000 Wavebouys and Weather Stations around the globe.

Join Pro

Comparision Forecast

View Surf forecast
   
jeu. 10/30 1:50 2.5ft 7s  -  7 9 mph 1011.5mb 55f 53f
12:50 2.5ft 7s 5s 7 9 mph 1011.6mb 55f 52f
11:50 2.5ft 7s 5s 9
mph
1011.9mb 55f 52f
10:50 2.5ft 6s 5s 4 7 mph 1012.1mb 55f 53f
9:50 2.5ft 6s 4s 4 7 mph 1012.2mb 55f 53f
8:50 2.5ft 6s 4s 11 13 mph 1011.9mb 55f 53f
7:50  -   -   -  9 11 mph 1011.7mb 55f 53f
6:50 3ft 5s 4s 9 11 mph 1010.9mb 55f 53f
5:50 3ft 5s 4s 13 16 mph 1010.3mb 55f 54f
4:50 3ft 5s 4s 16 18 mph 1009.7mb 55f 54f
3:50 3.5ft 4s 4s 16 20 mph 1009.1mb 55f 55f
2:50  -   -   -  13
mph
- - -
1:50 3.5ft 6s 4s 18 20 mph 1009.1mb 55f 55f
12:50 3.5ft 6s 4s 16 18 mph 1008.8mb 55f 54f
mer. 10/29 11:50 3.5ft 7s 4s 18 20 mph 1008.5mb 55f 54f
10:50 3.5ft 6s 4s 20 25 mph 1008.8mb 55f 54f
9:50 3ft 6s 5s 13 16 mph 1008.4mb 55f 57f
8:50 3ft 6s 5s 9 11 mph 1008.5mb 55f 56f
7:50 3.5ft 6s 5s 9
mph
1008.8mb 56f 56f
6:50 3ft 6s 5s 7 9 mph 1008.4mb 56f 55f
5:50 2.5ft 6s 5s 9 11 mph 1007.9mb 56f 55f
4:50 3ft 6s 5s 7 9 mph 1007.4mb 56f 55f
3:50 3.5ft 6s 5s 7
mph
1007.7mb 56f 56f
2:50 3ft 5s  -  7
mph
1007.8mb 55f 57f
1:50 2.5ft 5s 4s 9 11 mph 1008.1mb 55f 57f
12:50 2.5ft 5s 4s 13 16 mph 1008.6mb 55f 57f
11:50 3ft 5s 4s 13 16 mph 1009.2mb 55f 57f
10:50 2.5ft 5s 4s 13 16 mph 1009.8mb 55f 57f
9:50 2.5ft 5s 4s 11 13 mph 1010.6mb 55f 57f
8:50 2.5ft 5s 4s 13 16 mph 1010.8mb 55f 57f
7:50 2.5ft 5s 4s 11 13 mph 1010.7mb 55f 56f
6:50 2.5ft 5s 4s 13 16 mph 1010.8mb 55f 56f
5:50 2.5ft 4s 4s 13 18 mph 1011mb 55f 56f
4:50 2.5ft 5s 4s 18 20 mph 1011.2mb 55f 56f
3:50 2.5ft 5s 4s 16 18 mph 1011.3mb 55f 56f
2:50 2.5ft 5s 4s 18 20 mph 1011.9mb 55f 56f
1:50 2.5ft 5s 4s 18 20 mph 1012.3mb 55f 56f
12:50 2.5ft 5s 4s 13 16 mph 1012.9mb 55f 56f
mar. 10/28 11:50 2.5ft 5s 4s 11 13 mph 1014.1mb 55f 56f
10:50 2.5ft 4s 4s 13 16 mph 1014.5mb 55f 56f
9:50 3ft 4s 4s 16 18 mph 1014.8mb 55f 57f
8:50 2.5ft 4s 4s 20 25 mph 1014.7mb 55f 57f
7:50 2.5ft 4s 4s 16 20 mph 1015.4mb 55f 56f
6:50 2ft 4s 4s 16 18 mph 1016.1mb 55f 56f
5:50 2ft 3s 4s 16 18 mph 1016.2mb 55f 55f
4:50 1.6ft 3s 3s 16 18 mph 1016.5mb 55f 55f
3:50 1.3ft 7s 3s 16 18 mph 1016.7mb 55f 55f
2:50 1.3ft 6s 5s 13 16 mph 1017mb 55f 54f
1:50 1ft 7s 5s 9 11 mph 1017.4mb 55f 54f
12:50 1ft 7s 4s 7 9 mph 1018mb 55f 54f
11:50 1ft 7s 4s 7 9 mph 1018.6mb 55f 54f
10:50 1ft 7s 4s 4 7 mph 1018.6mb 55f 53f
9:50 1.3ft 3s 4s  -  2 mph 1018.8mb 55f 53f
8:50 1.3ft 4s 4s 4
mph
1018.7mb 55f 53f
7:50 1.6ft 4s 4s 4 7 mph 1018mb 55f 53f
6:50 1.6ft 4s 3s 9 11 mph 1017.9mb 55f 53f
5:50 2ft 4s 3s 11 13 mph 1017.3mb 55f 53f
4:50 2ft 4s 4s 13 16 mph 1017mb 55f 53f
3:50  -   -   -  11 13 mph 1016mb 55f 53f
2:50  -   -   -  13 18 mph 1015.9mb 55f 53f
1:50  -   -   -  16 18 mph 1015.3mb 55f 53f
12:50  -   -   -  18 22 mph 1014.7mb 55f 53f
lun. 10/27 11:50  -   -   -  18 22 mph 1014.6mb 55f 53f
10:50 4.5ft 5s 5s 20 22 mph 1014.2mb 55f 53f
9:50  -   -   -  20 25 mph 1014.1mb 55f 54f
8:50 5ft 5s 5s 25 29 mph 1013.5mb 55f 54f
7:50 5ft 5s 4s 25 29 mph 1012.8mb 55f 54f
6:50 4.5ft 5s 4s 25 29 mph 1011.5mb 55f 55f
5:50  -   -   -  22 27 mph 1010.5mb 55f 55f
4:50 5ft 5s 4s 25 29 mph 1009.5mb 55f 55f
3:50 5ft 5s 5s 22 29 mph 1009mb 55f 55f
2:50  -   -   -  22 27 mph 1008.4mb 55f 54f
1:50 6ft 6s 5s 27 31 mph 1007.8mb 55f 54f
12:50  -   -   -  27 31 mph 1007.7mb 55f 53f
11:50 5ft 6s 4s 27 34 mph 1007.9mb 55f 52f
10:50 5.5ft 6s 5s 25 29 mph 1007.5mb 55f 52f
9:50  -   -   -  22 25 mph 1007.1mb 55f 51f
8:50 5.5ft 6s 5s 20 25 mph 1006.8mb 55f 52f
7:50 5ft 6s 5s 25 29 mph 1006mb 55f 52f
6:50 5ft 6s 5s 22 27 mph 1005.1mb 55f 51f
5:50 4.5ft 5s 4s 22 25 mph 1004.3mb 55f 51f
4:50 3.5ft 5s 4s 20 25 mph 1003.9mb 55f 51f
3:50 4.5ft 5s 4s 20 25 mph 1003.5mb 55f 51f
2:50 4.5ft 5s 4s 20 25 mph 1003mb 55f 51f
1:50 5ft 5s 4s 22 27 mph 1002.3mb 55f 51f
12:50 5ft 6s 5s 22 29 mph 1001.7mb 55f 52f
dim. 10/26 11:50  -   -   -  25 29 mph 1001.4mb 55f 52f
10:50 6ft 6s 5s 25 29 mph 1001.1mb 55f 53f
9:50  -   -   -  27 31 mph 1000.5mb 55f 53f
8:50 4.5ft 5s 4s 22 27 mph 1000mb 55f 55f
7:50 4ft 5s 4s 20 22 mph 999.3mb 56f 55f